sensor_id;sensor_type;location;lat;lon;timestamp;P1;durP1;ratioP1;P2;durP2;ratioP2
5622;SDS011;2833;50.432;10.706;2023-08-12T00:00:27;4.33;;;3.93;;
5622;SDS011;2833;50.432;10.706;2023-08-12T00:02:52;4.63;;;3.83;;
5622;SDS011;2833;50.432;10.706;2023-08-12T00:05:18;3.93;;;3.63;;
5622;SDS011;2833;50.432;10.706;2023-08-12T00:07:43;4.30;;;3.63;;
5622;SDS011;2833;50.432;10.706;2023-08-12T00:10:09;3.73;;;3.43;;
5622;SDS011;2833;50.432;10.706;2023-08-12T00:12:34;5.57;;;4.00;;
5622;SDS011;2833;50.432;10.706;2023-08-12T00:15:00;4.53;;;4.13;;
5622;SDS011;2833;50.432;10.706;2023-08-12T00:17:26;5.23;;;4.20;;
5622;SDS011;2833;50.432;10.706;2023-08-12T00:19:51;5.70;;;4.30;;
5622;SDS011;2833;50.432;10.706;2023-08-12T00:22:16;5.57;;;4.70;;
5622;SDS011;2833;50.432;10.706;2023-08-12T00:24:41;7.03;;;5.00;;
5622;SDS011;2833;50.432;10.706;2023-08-12T00:27:07;7.93;;;4.87;;
5622;SDS011;2833;50.432;10.706;2023-08-12T00:29:33;7.20;;;4.70;;
5622;SDS011;2833;50.432;10.706;2023-08-12T00:31:59;8.40;;;5.00;;
5622;SDS011;2833;50.432;10.706;2023-08-12T00:34:24;4.67;;;4.27;;
5622;SDS011;2833;50.432;10.706;2023-08-12T00:36:49;6.10;;;5.10;;
5622;SDS011;2833;50.432;10.706;2023-08-12T00:39:14;7.33;;;4.63;;
5622;SDS011;2833;50.432;10.706;2023-08-12T00:41:40;6.20;;;4.83;;
5622;SDS011;2833;50.432;10.706;2023-08-12T00:44:05;6.13;;;4.50;;
5622;SDS011;2833;50.432;10.706;2023-08-12T00:46:30;5.30;;;4.63;;
5622;SDS011;2833;50.432;10.706;2023-08-12T00:48:56;7.07;;;4.77;;
5622;SDS011;2833;50.432;10.706;2023-08-12T00:51:21;7.93;;;6.53;;
5622;SDS011;2833;50.432;10.706;2023-08-12T00:53:47;7.63;;;4.73;;
5622;SDS011;2833;50.432;10.706;2023-08-12T00:56:12;7.70;;;4.60;;
5622;SDS011;2833;50.432;10.706;2023-08-12T00:58:38;7.97;;;4.30;;
5622;SDS011;2833;50.432;10.706;2023-08-12T01:01:04;7.37;;;5.13;;
5622;SDS011;2833;50.432;10.706;2023-08-12T01:03:29;6.30;;;4.37;;
5622;SDS011;2833;50.432;10.706;2023-08-12T01:05:55;5.00;;;4.50;;
5622;SDS011;2833;50.432;10.706;2023-08-12T01:08:20;8.80;;;4.83;;
5622;SDS011;2833;50.432;10.706;2023-08-12T01:10:47;5.43;;;4.53;;
5622;SDS011;2833;50.432;10.706;2023-08-12T01:15:45;6.30;;;4.97;;
5622;SDS011;2833;50.432;10.706;2023-08-12T01:18:12;4.90;;;4.27;;
5622;SDS011;2833;50.432;10.706;2023-08-12T01:20:38;5.77;;;4.60;;
5622;SDS011;2833;50.432;10.706;2023-08-12T01:23:16;4.53;;;4.10;;
5622;SDS011;2833;50.432;10.706;2023-08-12T01:25:41;4.37;;;3.97;;
5622;SDS011;2833;50.432;10.706;2023-08-12T01:28:07;5.97;;;4.30;;
5622;SDS011;2833;50.432;10.706;2023-08-12T01:30:33;5.27;;;4.77;;
5622;SDS011;2833;50.432;10.706;2023-08-12T01:33:02;4.90;;;4.40;;
5622;SDS011;2833;50.432;10.706;2023-08-12T01:37:54;6.30;;;5.70;;
5622;SDS011;2833;50.432;10.706;2023-08-12T01:40:21;10.13;;;5.63;;
5622;SDS011;2833;50.432;10.706;2023-08-12T01:42:47;6.57;;;5.47;;
5622;SDS011;2833;50.432;10.706;2023-08-12T01:45:12;8.90;;;5.90;;
5622;SDS011;2833;50.432;10.706;2023-08-12T01:47:38;6.40;;;5.70;;
5622;SDS011;2833;50.432;10.706;2023-08-12T01:50:03;6.20;;;5.60;;
5622;SDS011;2833;50.432;10.706;2023-08-12T01:52:29;6.40;;;5.77;;
5622;SDS011;2833;50.432;10.706;2023-08-12T01:54:54;6.27;;;5.07;;
5622;SDS011;2833;50.432;10.706;2023-08-12T01:57:19;6.13;;;5.53;;
5622;SDS011;2833;50.432;10.706;2023-08-12T01:59:45;5.40;;;4.90;;
5622;SDS011;2833;50.432;10.706;2023-08-12T02:02:10;5.50;;;5.00;;
5622;SDS011;2833;50.432;10.706;2023-08-12T02:04:35;6.90;;;5.03;;
5622;SDS011;2833;50.432;10.706;2023-08-12T02:07:02;5.10;;;4.30;;
5622;SDS011;2833;50.432;10.706;2023-08-12T02:09:27;7.53;;;4.90;;
5622;SDS011;2833;50.432;10.706;2023-08-12T02:11:53;5.80;;;4.60;;
5622;SDS011;2833;50.432;10.706;2023-08-12T02:14:18;8.73;;;4.60;;
5622;SDS011;2833;50.432;10.706;2023-08-12T02:16:43;5.50;;;5.00;;
5622;SDS011;2833;50.432;10.706;2023-08-12T02:19:08;8.53;;;5.27;;
5622;SDS011;2833;50.432;10.706;2023-08-12T02:21:33;6.43;;;5.30;;
5622;SDS011;2833;50.432;10.706;2023-08-12T02:23:59;5.30;;;4.80;;
5622;SDS011;2833;50.432;10.706;2023-08-12T02:26:24;8.07;;;4.80;;
5622;SDS011;2833;50.432;10.706;2023-08-12T02:28:49;4.83;;;4.33;;
5622;SDS011;2833;50.432;10.706;2023-08-12T02:31:17;5.90;;;5.17;;
5622;SDS011;2833;50.432;10.706;2023-08-12T02:33:43;5.97;;;5.37;;
5622;SDS011;2833;50.432;10.706;2023-08-12T02:36:08;6.60;;;4.97;;
5622;SDS011;2833;50.432;10.706;2023-08-12T02:38:34;8.37;;;5.27;;
5622;SDS011;2833;50.432;10.706;2023-08-12T02:40:59;7.80;;;5.20;;
5622;SDS011;2833;50.432;10.706;2023-08-12T02:43:24;6.03;;;5.43;;
5622;SDS011;2833;50.432;10.706;2023-08-12T02:45:50;5.73;;;4.57;;
5622;SDS011;2833;50.432;10.706;2023-08-12T02:48:15;5.23;;;4.47;;
5622;SDS011;2833;50.432;10.706;2023-08-12T02:50:40;8.57;;;5.10;;
5622;SDS011;2833;50.432;10.706;2023-08-12T02:53:05;6.33;;;5.23;;
5622;SDS011;2833;50.432;10.706;2023-08-12T02:55:31;6.90;;;4.90;;
5622;SDS011;2833;50.432;10.706;2023-08-12T02:57:59;7.10;;;5.33;;
5622;SDS011;2833;50.432;10.706;2023-08-12T03:00:25;6.10;;;5.40;;
5622;SDS011;2833;50.432;10.706;2023-08-12T03:02:50;5.43;;;4.90;;
5622;SDS011;2833;50.432;10.706;2023-08-12T03:05:15;6.43;;;4.80;;
5622;SDS011;2833;50.432;10.706;2023-08-12T03:07:40;5.37;;;4.87;;
5622;SDS011;2833;50.432;10.706;2023-08-12T03:10:06;7.57;;;5.20;;
5622;SDS011;2833;50.432;10.706;2023-08-12T03:12:31;5.57;;;5.07;;
5622;SDS011;2833;50.432;10.706;2023-08-12T03:14:56;7.63;;;5.20;;
5622;SDS011;2833;50.432;10.706;2023-08-12T03:17:21;9.33;;;5.47;;
5622;SDS011;2833;50.432;10.706;2023-08-12T03:19:47;6.97;;;4.60;;
5622;SDS011;2833;50.432;10.706;2023-08-12T03:22:12;8.00;;;5.30;;
5622;SDS011;2833;50.432;10.706;2023-08-12T03:24:37;6.00;;;5.40;;
5622;SDS011;2833;50.432;10.706;2023-08-12T03:27:02;8.03;;;5.30;;
5622;SDS011;2833;50.432;10.706;2023-08-12T03:29:28;6.60;;;4.93;;
5622;SDS011;2833;50.432;10.706;2023-08-12T03:31:53;8.53;;;4.77;;
5622;SDS011;2833;50.432;10.706;2023-08-12T03:34:18;5.83;;;4.60;;
5622;SDS011;2833;50.432;10.706;2023-08-12T03:36:43;5.23;;;4.73;;
5622;SDS011;2833;50.432;10.706;2023-08-12T03:39:11;4.90;;;4.27;;
5622;SDS011;2833;50.432;10.706;2023-08-12T03:41:36;5.33;;;4.83;;
5622;SDS011;2833;50.432;10.706;2023-08-12T03:44:01;7.60;;;4.40;;
5622;SDS011;2833;50.432;10.706;2023-08-12T03:46:26;5.60;;;4.90;;
5622;SDS011;2833;50.432;10.706;2023-08-12T03:48:52;5.33;;;4.80;;
5622;SDS011;2833;50.432;10.706;2023-08-12T03:51:17;4.63;;;4.23;;
5622;SDS011;2833;50.432;10.706;2023-08-12T03:53:42;5.63;;;5.10;;
5622;SDS011;2833;50.432;10.706;2023-08-12T03:56:07;6.17;;;4.93;;
5622;SDS011;2833;50.432;10.706;2023-08-12T03:58:32;4.90;;;4.50;;
5622;SDS011;2833;50.432;10.706;2023-08-12T04:00:58;5.77;;;5.27;;
5622;SDS011;2833;50.432;10.706;2023-08-12T04:03:24;5.33;;;4.83;;
5622;SDS011;2833;50.432;10.706;2023-08-12T04:05:49;5.67;;;5.03;;
5622;SDS011;2833;50.432;10.706;2023-08-12T04:08:17;5.27;;;4.77;;
5622;SDS011;2833;50.432;10.706;2023-08-12T04:10:44;10.87;;;5.27;;
5622;SDS011;2833;50.432;10.706;2023-08-12T04:13:09;5.97;;;5.30;;
5622;SDS011;2833;50.432;10.706;2023-08-12T04:15:34;9.10;;;4.87;;
5622;SDS011;2833;50.432;10.706;2023-08-12T04:18:00;13.37;;;5.47;;
5622;SDS011;2833;50.432;10.706;2023-08-12T04:20:25;6.23;;;4.70;;
5622;SDS011;2833;50.432;10.706;2023-08-12T04:22:50;5.73;;;4.73;;
5622;SDS011;2833;50.432;10.706;2023-08-12T04:25:15;5.37;;;4.73;;
5622;SDS011;2833;50.432;10.706;2023-08-12T04:27:41;5.60;;;5.10;;
5622;SDS011;2833;50.432;10.706;2023-08-12T04:30:06;6.90;;;5.60;;
5622;SDS011;2833;50.432;10.706;2023-08-12T04:32:32;4.90;;;4.50;;
5622;SDS011;2833;50.432;10.706;2023-08-12T04:34:57;6.80;;;5.23;;
5622;SDS011;2833;50.432;10.706;2023-08-12T04:37:22;5.37;;;4.93;;
5622;SDS011;2833;50.432;10.706;2023-08-12T04:39:49;7.47;;;5.50;;
5622;SDS011;2833;50.432;10.706;2023-08-12T04:42:14;9.00;;;5.83;;
5622;SDS011;2833;50.432;10.706;2023-08-12T04:44:39;6.80;;;4.93;;
5622;SDS011;2833;50.432;10.706;2023-08-12T04:47:04;7.80;;;6.00;;
5622;SDS011;2833;50.432;10.706;2023-08-12T04:49:30;16.57;;;5.13;;
5622;SDS011;2833;50.432;10.706;2023-08-12T04:51:55;7.17;;;5.50;;
5622;SDS011;2833;50.432;10.706;2023-08-12T04:54:20;5.60;;;5.10;;
5622;SDS011;2833;50.432;10.706;2023-08-12T04:56:46;5.50;;;5.00;;
5622;SDS011;2833;50.432;10.706;2023-08-12T04:59:11;9.97;;;5.17;;
5622;SDS011;2833;50.432;10.706;2023-08-12T05:01:36;5.77;;;5.13;;
5622;SDS011;2833;50.432;10.706;2023-08-12T05:04:02;5.53;;;5.03;;
5622;SDS011;2833;50.432;10.706;2023-08-12T05:06:27;8.33;;;5.67;;
5622;SDS011;2833;50.432;10.706;2023-08-12T05:08:52;8.90;;;5.20;;
5622;SDS011;2833;50.432;10.706;2023-08-12T05:11:18;6.30;;;5.40;;
5622;SDS011;2833;50.432;10.706;2023-08-12T05:13:43;9.03;;;6.23;;
5622;SDS011;2833;50.432;10.706;2023-08-12T05:16:08;18.33;;;12.73;;
5622;SDS011;2833;50.432;10.706;2023-08-12T05:18:33;8.40;;;6.60;;
5622;SDS011;2833;50.432;10.706;2023-08-12T05:20:58;15.67;;;8.87;;
5622;SDS011;2833;50.432;10.706;2023-08-12T05:23:24;13.03;;;7.53;;
5622;SDS011;2833;50.432;10.706;2023-08-12T05:25:49;14.30;;;7.30;;
5622;SDS011;2833;50.432;10.706;2023-08-12T05:28:14;6.97;;;5.63;;
5622;SDS011;2833;50.432;10.706;2023-08-12T05:30:39;6.03;;;5.43;;
5622;SDS011;2833;50.432;10.706;2023-08-12T05:33:05;5.80;;;5.20;;
5622;SDS011;2833;50.432;10.706;2023-08-12T05:35:33;8.53;;;5.33;;
5622;SDS011;2833;50.432;10.706;2023-08-12T05:37:59;6.40;;;5.70;;
5622;SDS011;2833;50.432;10.706;2023-08-12T05:40:24;7.87;;;5.70;;
5622;SDS011;2833;50.432;10.706;2023-08-12T05:42:49;6.37;;;5.20;;
5622;SDS011;2833;50.432;10.706;2023-08-12T05:45:14;7.50;;;5.73;;
5622;SDS011;2833;50.432;10.706;2023-08-12T05:47:40;5.70;;;5.20;;
5622;SDS011;2833;50.432;10.706;2023-08-12T05:50:05;5.60;;;5.10;;
5622;SDS011;2833;50.432;10.706;2023-08-12T05:52:31;6.67;;;5.60;;
5622;SDS011;2833;50.432;10.706;2023-08-12T05:54:56;5.67;;;5.17;;
5622;SDS011;2833;50.432;10.706;2023-08-12T05:57:22;9.67;;;5.33;;
5622;SDS011;2833;50.432;10.706;2023-08-12T05:59:47;6.33;;;5.70;;
5622;SDS011;2833;50.432;10.706;2023-08-12T06:02:12;7.27;;;5.80;;
5622;SDS011;2833;50.432;10.706;2023-08-12T06:04:37;6.27;;;5.63;;
5622;SDS011;2833;50.432;10.706;2023-08-12T06:07:02;5.97;;;4.80;;
5622;SDS011;2833;50.432;10.706;2023-08-12T06:09:28;8.27;;;5.63;;
5622;SDS011;2833;50.432;10.706;2023-08-12T06:11:53;7.00;;;5.50;;
5622;SDS011;2833;50.432;10.706;2023-08-12T06:14:18;6.10;;;5.07;;
5622;SDS011;2833;50.432;10.706;2023-08-12T06:16:43;5.47;;;4.97;;
5622;SDS011;2833;50.432;10.706;2023-08-12T06:19:09;6.70;;;5.87;;
5622;SDS011;2833;50.432;10.706;2023-08-12T06:21:34;8.60;;;5.93;;
5622;SDS011;2833;50.432;10.706;2023-08-12T06:23:59;7.33;;;5.60;;
5622;SDS011;2833;50.432;10.706;2023-08-12T06:26:24;6.17;;;5.57;;
5622;SDS011;2833;50.432;10.706;2023-08-12T06:28:49;6.60;;;5.80;;
5622;SDS011;2833;50.432;10.706;2023-08-12T06:31:15;6.63;;;5.93;;
5622;SDS011;2833;50.432;10.706;2023-08-12T06:33:40;6.90;;;5.77;;
5622;SDS011;2833;50.432;10.706;2023-08-12T06:36:05;9.10;;;6.10;;
5622;SDS011;2833;50.432;10.706;2023-08-12T06:38:31;7.97;;;6.10;;
5622;SDS011;2833;50.432;10.706;2023-08-12T06:40:56;6.47;;;5.83;;
5622;SDS011;2833;50.432;10.706;2023-08-12T06:43:21;7.27;;;5.40;;
5622;SDS011;2833;50.432;10.706;2023-08-12T06:45:46;6.47;;;5.57;;
5622;SDS011;2833;50.432;10.706;2023-08-12T06:48:11;7.27;;;5.70;;
5622;SDS011;2833;50.432;10.706;2023-08-12T06:50:37;8.40;;;5.90;;
5622;SDS011;2833;50.432;10.706;2023-08-12T06:53:02;6.27;;;5.57;;
5622;SDS011;2833;50.432;10.706;2023-08-12T06:55:27;6.37;;;5.70;;
5622;SDS011;2833;50.432;10.706;2023-08-12T06:57:52;7.20;;;5.40;;
5622;SDS011;2833;50.432;10.706;2023-08-12T07:00:18;9.10;;;5.77;;
5622;SDS011;2833;50.432;10.706;2023-08-12T07:02:43;6.43;;;5.83;;
5622;SDS011;2833;50.432;10.706;2023-08-12T07:05:08;5.57;;;5.00;;
5622;SDS011;2833;50.432;10.706;2023-08-12T07:07:34;6.40;;;5.30;;
5622;SDS011;2833;50.432;10.706;2023-08-12T07:09:59;7.93;;;5.53;;
5622;SDS011;2833;50.432;10.706;2023-08-12T07:12:24;5.60;;;5.10;;
5622;SDS011;2833;50.432;10.706;2023-08-12T07:14:49;6.67;;;6.07;;
5622;SDS011;2833;50.432;10.706;2023-08-12T07:17:15;8.37;;;5.73;;
5622;SDS011;2833;50.432;10.706;2023-08-12T07:19:40;6.57;;;5.97;;
5622;SDS011;2833;50.432;10.706;2023-08-12T07:22:05;6.10;;;5.50;;
5622;SDS011;2833;50.432;10.706;2023-08-12T07:24:30;10.33;;;5.43;;
5622;SDS011;2833;50.432;10.706;2023-08-12T07:26:55;6.20;;;5.60;;
5622;SDS011;2833;50.432;10.706;2023-08-12T07:29:21;6.23;;;5.63;;
5622;SDS011;2833;50.432;10.706;2023-08-12T07:31:46;6.10;;;5.50;;
5622;SDS011;2833;50.432;10.706;2023-08-12T07:34:11;6.30;;;5.70;;
5622;SDS011;2833;50.432;10.706;2023-08-12T07:36:38;12.53;;;5.60;;
5622;SDS011;2833;50.432;10.706;2023-08-12T07:39:03;5.50;;;5.00;;
5622;SDS011;2833;50.432;10.706;2023-08-12T07:41:29;9.50;;;5.80;;
5622;SDS011;2833;50.432;10.706;2023-08-12T07:43:54;5.40;;;4.90;;
5622;SDS011;2833;50.432;10.706;2023-08-12T07:46:19;6.77;;;4.70;;
5622;SDS011;2833;50.432;10.706;2023-08-12T07:48:45;5.07;;;4.57;;
5622;SDS011;2833;50.432;10.706;2023-08-12T07:51:10;4.47;;;4.03;;
5622;SDS011;2833;50.432;10.706;2023-08-12T07:53:36;6.03;;;5.20;;
5622;SDS011;2833;50.432;10.706;2023-08-12T07:56:01;12.53;;;9.23;;
5622;SDS011;2833;50.432;10.706;2023-08-12T07:58:26;6.77;;;5.97;;
5622;SDS011;2833;50.432;10.706;2023-08-12T08:00:54;6.47;;;5.20;;
5622;SDS011;2833;50.432;10.706;2023-08-12T08:03:19;8.77;;;4.90;;
5622;SDS011;2833;50.432;10.706;2023-08-12T08:05:45;10.77;;;5.40;;
5622;SDS011;2833;50.432;10.706;2023-08-12T08:08:12;11.53;;;5.00;;
5622;SDS011;2833;50.432;10.706;2023-08-12T08:10:37;7.23;;;4.27;;
5622;SDS011;2833;50.432;10.706;2023-08-12T08:13:02;5.07;;;4.57;;
5622;SDS011;2833;50.432;10.706;2023-08-12T08:15:28;5.40;;;4.70;;
5622;SDS011;2833;50.432;10.706;2023-08-12T08:17:53;6.70;;;5.03;;
5622;SDS011;2833;50.432;10.706;2023-08-12T08:20:18;5.80;;;4.90;;
5622;SDS011;2833;50.432;10.706;2023-08-12T08:22:43;14.03;;;5.70;;
5622;SDS011;2833;50.432;10.706;2023-08-12T08:25:09;7.23;;;5.20;;
5622;SDS011;2833;50.432;10.706;2023-08-12T08:27:34;10.83;;;5.60;;
5622;SDS011;2833;50.432;10.706;2023-08-12T08:29:59;6.10;;;5.33;;
5622;SDS011;2833;50.432;10.706;2023-08-12T08:32:24;7.50;;;5.23;;
5622;SDS011;2833;50.432;10.706;2023-08-12T08:34:50;6.30;;;5.63;;
5622;SDS011;2833;50.432;10.706;2023-08-12T08:37:16;7.80;;;5.13;;
5622;SDS011;2833;50.432;10.706;2023-08-12T08:39:41;5.77;;;5.10;;
5622;SDS011;2833;50.432;10.706;2023-08-12T08:42:06;7.63;;;4.53;;
5622;SDS011;2833;50.432;10.706;2023-08-12T08:44:32;5.87;;;4.53;;
5622;SDS011;2833;50.432;10.706;2023-08-12T08:46:58;5.50;;;5.00;;
5622;SDS011;2833;50.432;10.706;2023-08-12T08:49:23;5.73;;;4.80;;
5622;SDS011;2833;50.432;10.706;2023-08-12T08:51:50;6.20;;;4.73;;
5622;SDS011;2833;50.432;10.706;2023-08-12T08:54:16;6.77;;;4.90;;
5622;SDS011;2833;50.432;10.706;2023-08-12T08:56:41;4.83;;;4.33;;
5622;SDS011;2833;50.432;10.706;2023-08-12T08:59:06;6.43;;;5.07;;
5622;SDS011;2833;50.432;10.706;2023-08-12T09:01:32;5.07;;;4.47;;
5622;SDS011;2833;50.432;10.706;2023-08-12T09:03:57;9.70;;;4.60;;
5622;SDS011;2833;50.432;10.706;2023-08-12T09:06:26;5.33;;;4.43;;
5622;SDS011;2833;50.432;10.706;2023-08-12T09:08:52;5.33;;;4.10;;
5622;SDS011;2833;50.432;10.706;2023-08-12T09:11:18;6.13;;;4.60;;
5622;SDS011;2833;50.432;10.706;2023-08-12T09:13:44;6.87;;;4.90;;
5622;SDS011;2833;50.432;10.706;2023-08-12T09:16:09;5.33;;;3.80;;
5622;SDS011;2833;50.432;10.706;2023-08-12T09:18:34;4.90;;;4.40;;
5622;SDS011;2833;50.432;10.706;2023-08-12T09:21:00;5.20;;;4.70;;
5622;SDS011;2833;50.432;10.706;2023-08-12T09:23:28;5.60;;;5.07;;
5622;SDS011;2833;50.432;10.706;2023-08-12T09:25:53;8.60;;;5.30;;
5622;SDS011;2833;50.432;10.706;2023-08-12T09:28:19;6.70;;;5.17;;
5622;SDS011;2833;50.432;10.706;2023-08-12T09:30:50;10.83;;;4.73;;
5622;SDS011;2833;50.432;10.706;2023-08-12T09:33:16;6.13;;;5.43;;
5622;SDS011;2833;50.432;10.706;2023-08-12T09:35:49;8.10;;;5.23;;
5622;SDS011;2833;50.432;10.706;2023-08-12T09:38:14;5.20;;;4.70;;
5622;SDS011;2833;50.432;10.706;2023-08-12T09:40:39;5.57;;;4.83;;
5622;SDS011;2833;50.432;10.706;2023-08-12T09:43:05;6.33;;;5.40;;
5622;SDS011;2833;50.432;10.706;2023-08-12T09:45:30;6.23;;;5.53;;
5622;SDS011;2833;50.432;10.706;2023-08-12T09:47:56;8.33;;;6.10;;
5622;SDS011;2833;50.432;10.706;2023-08-12T09:50:22;7.03;;;5.10;;
5622;SDS011;2833;50.432;10.706;2023-08-12T09:52:47;6.37;;;5.43;;
5622;SDS011;2833;50.432;10.706;2023-08-12T09:55:12;6.17;;;5.40;;
5622;SDS011;2833;50.432;10.706;2023-08-12T09:57:41;9.73;;;5.80;;
5622;SDS011;2833;50.432;10.706;2023-08-12T10:00:07;5.97;;;5.43;;
5622;SDS011;2833;50.432;10.706;2023-08-12T10:02:37;5.73;;;5.13;;
5622;SDS011;2833;50.432;10.706;2023-08-12T10:05:03;7.50;;;5.87;;
5622;SDS011;2833;50.432;10.706;2023-08-12T10:07:29;10.70;;;8.87;;
5622;SDS011;2833;50.432;10.706;2023-08-12T10:09:54;11.83;;;10.63;;
5622;SDS011;2833;50.432;10.706;2023-08-12T10:12:20;11.27;;;10.10;;
5622;SDS011;2833;50.432;10.706;2023-08-12T10:14:45;13.63;;;8.60;;
5622;SDS011;2833;50.432;10.706;2023-08-12T10:17:12;6.73;;;6.03;;
5622;SDS011;2833;50.432;10.706;2023-08-12T10:19:38;9.17;;;7.00;;
5622;SDS011;2833;50.432;10.706;2023-08-12T10:22:08;7.00;;;6.30;;
5622;SDS011;2833;50.432;10.706;2023-08-12T10:24:33;10.27;;;5.90;;
5622;SDS011;2833;50.432;10.706;2023-08-12T10:26:59;5.80;;;5.30;;
5622;SDS011;2833;50.432;10.706;2023-08-12T10:29:24;9.37;;;5.70;;
5622;SDS011;2833;50.432;10.706;2023-08-12T10:31:50;5.83;;;5.33;;
5622;SDS011;2833;50.432;10.706;2023-08-12T10:34:19;7.27;;;5.50;;
5622;SDS011;2833;50.432;10.706;2023-08-12T10:36:44;6.70;;;5.50;;
5622;SDS011;2833;50.432;10.706;2023-08-12T10:39:10;5.90;;;5.13;;
5622;SDS011;2833;50.432;10.706;2023-08-12T10:41:35;6.53;;;5.40;;
5622;SDS011;2833;50.432;10.706;2023-08-12T10:44:01;11.33;;;8.70;;
5622;SDS011;2833;50.432;10.706;2023-08-12T10:46:32;11.93;;;7.23;;
5622;SDS011;2833;50.432;10.706;2023-08-12T10:48:58;7.70;;;6.90;;
5622;SDS011;2833;50.432;10.706;2023-08-12T10:54:16;9.50;;;6.70;;
5622;SDS011;2833;50.432;10.706;2023-08-12T11:02:19;7.07;;;5.50;;
5622;SDS011;2833;50.432;10.706;2023-08-12T11:04:48;8.90;;;5.30;;
5622;SDS011;2833;50.432;10.706;2023-08-12T11:07:20;7.30;;;5.37;;
5622;SDS011;2833;50.432;10.706;2023-08-12T11:09:46;7.10;;;5.80;;
5622;SDS011;2833;50.432;10.706;2023-08-12T11:12:17;8.23;;;6.10;;
5622;SDS011;2833;50.432;10.706;2023-08-12T11:14:49;7.23;;;5.70;;
5622;SDS011;2833;50.432;10.706;2023-08-12T11:17:18;7.53;;;6.20;;
5622;SDS011;2833;50.432;10.706;2023-08-12T11:19:43;6.40;;;5.80;;
5622;SDS011;2833;50.432;10.706;2023-08-12T11:22:08;7.20;;;6.37;;
5622;SDS011;2833;50.432;10.706;2023-08-12T11:24:34;7.53;;;6.73;;
5622;SDS011;2833;50.432;10.706;2023-08-12T11:27:01;6.83;;;6.23;;
5622;SDS011;2833;50.432;10.706;2023-08-12T11:29:26;7.33;;;6.40;;
5622;SDS011;2833;50.432;10.706;2023-08-12T11:31:52;7.53;;;6.50;;
5622;SDS011;2833;50.432;10.706;2023-08-12T11:34:17;6.67;;;5.97;;
5622;SDS011;2833;50.432;10.706;2023-08-12T11:36:43;7.10;;;5.70;;
5622;SDS011;2833;50.432;10.706;2023-08-12T11:39:08;6.33;;;5.73;;
5622;SDS011;2833;50.432;10.706;2023-08-12T11:41:33;6.93;;;5.83;;
5622;SDS011;2833;50.432;10.706;2023-08-12T11:43:59;7.03;;;6.33;;
5622;SDS011;2833;50.432;10.706;2023-08-12T11:46:24;7.53;;;6.80;;
5622;SDS011;2833;50.432;10.706;2023-08-12T11:48:50;9.03;;;6.10;;
5622;SDS011;2833;50.432;10.706;2023-08-12T11:51:15;6.43;;;5.50;;
5622;SDS011;2833;50.432;10.706;2023-08-12T11:53:40;7.50;;;6.10;;
5622;SDS011;2833;50.432;10.706;2023-08-12T11:56:06;6.37;;;5.73;;
5622;SDS011;2833;50.432;10.706;2023-08-12T11:58:37;7.27;;;5.70;;
5622;SDS011;2833;50.432;10.706;2023-08-12T12:01:02;5.87;;;5.27;;
5622;SDS011;2833;50.432;10.706;2023-08-12T12:03:28;7.60;;;6.23;;
5622;SDS011;2833;50.432;10.706;2023-08-12T12:05:55;6.67;;;5.90;;
5622;SDS011;2833;50.432;10.706;2023-08-12T12:08:30;7.00;;;5.53;;
5622;SDS011;2833;50.432;10.706;2023-08-12T12:10:56;7.70;;;5.87;;
5622;SDS011;2833;50.432;10.706;2023-08-12T12:13:21;6.47;;;5.60;;
5622;SDS011;2833;50.432;10.706;2023-08-12T12:15:48;13.33;;;5.57;;
5622;SDS011;2833;50.432;10.706;2023-08-12T12:18:13;7.37;;;6.00;;
5622;SDS011;2833;50.432;10.706;2023-08-12T12:20:53;7.30;;;6.50;;
5622;SDS011;2833;50.432;10.706;2023-08-12T12:23:18;8.00;;;6.33;;
5622;SDS011;2833;50.432;10.706;2023-08-12T12:25:43;12.83;;;6.93;;
5622;SDS011;2833;50.432;10.706;2023-08-12T12:28:09;9.70;;;6.60;;
5622;SDS011;2833;50.432;10.706;2023-08-12T12:30:35;8.40;;;5.97;;
5622;SDS011;2833;50.432;10.706;2023-08-12T12:33:01;6.17;;;5.60;;
5622;SDS011;2833;50.432;10.706;2023-08-12T12:35:26;8.40;;;5.80;;
5622;SDS011;2833;50.432;10.706;2023-08-12T12:37:51;6.80;;;5.30;;
5622;SDS011;2833;50.432;10.706;2023-08-12T12:40:17;7.07;;;5.30;;
5622;SDS011;2833;50.432;10.706;2023-08-12T12:42:42;7.80;;;6.40;;
5622;SDS011;2833;50.432;10.706;2023-08-12T12:45:07;6.20;;;5.70;;
5622;SDS011;2833;50.432;10.706;2023-08-12T12:47:33;11.70;;;5.70;;
5622;SDS011;2833;50.432;10.706;2023-08-12T12:49:58;6.33;;;5.73;;
5622;SDS011;2833;50.432;10.706;2023-08-12T12:52:23;6.33;;;5.73;;
5622;SDS011;2833;50.432;10.706;2023-08-12T12:54:48;9.53;;;6.20;;
5622;SDS011;2833;50.432;10.706;2023-08-12T12:57:13;6.17;;;5.60;;
5622;SDS011;2833;50.432;10.706;2023-08-12T12:59:39;7.93;;;5.73;;
5622;SDS011;2833;50.432;10.706;2023-08-12T13:02:04;6.27;;;5.73;;
5622;SDS011;2833;50.432;10.706;2023-08-12T13:04:29;6.30;;;5.70;;
5622;SDS011;2833;50.432;10.706;2023-08-12T13:06:55;14.33;;;5.87;;
5622;SDS011;2833;50.432;10.706;2023-08-12T13:09:20;9.20;;;5.47;;
5622;SDS011;2833;50.432;10.706;2023-08-12T13:11:45;8.80;;;6.53;;
5622;SDS011;2833;50.432;10.706;2023-08-12T13:14:11;6.80;;;5.77;;
5622;SDS011;2833;50.432;10.706;2023-08-12T13:16:36;8.87;;;6.20;;
5622;SDS011;2833;50.432;10.706;2023-08-12T13:19:01;7.77;;;6.17;;
5622;SDS011;2833;50.432;10.706;2023-08-12T13:21:27;12.83;;;6.43;;
5622;SDS011;2833;50.432;10.706;2023-08-12T13:23:52;11.30;;;6.43;;
5622;SDS011;2833;50.432;10.706;2023-08-12T13:42:22;5.80;;;4.50;;
5622;SDS011;2833;50.432;10.706;2023-08-12T13:44:47;6.90;;;4.37;;
5622;SDS011;2833;50.432;10.706;2023-08-12T13:47:12;7.37;;;4.10;;
5622;SDS011;2833;50.432;10.706;2023-08-12T13:49:37;3.97;;;3.57;;
5622;SDS011;2833;50.432;10.706;2023-08-12T13:52:03;5.63;;;3.87;;
5622;SDS011;2833;50.432;10.706;2023-08-12T13:54:28;4.03;;;3.33;;
5622;SDS011;2833;50.432;10.706;2023-08-12T13:56:53;3.17;;;2.87;;
5622;SDS011;2833;50.432;10.706;2023-08-12T13:59:19;3.50;;;2.90;;
5622;SDS011;2833;50.432;10.706;2023-08-12T14:01:44;6.50;;;3.23;;
5622;SDS011;2833;50.432;10.706;2023-08-12T14:04:10;8.93;;;3.27;;
5622;SDS011;2833;50.432;10.706;2023-08-12T14:06:35;3.17;;;2.50;;
5622;SDS011;2833;50.432;10.706;2023-08-12T14:09:00;6.10;;;3.43;;
5622;SDS011;2833;50.432;10.706;2023-08-12T14:11:25;3.83;;;2.67;;
5622;SDS011;2833;50.432;10.706;2023-08-12T14:13:51;4.40;;;2.93;;
5622;SDS011;2833;50.432;10.706;2023-08-12T14:16:16;11.10;;;3.20;;
5622;SDS011;2833;50.432;10.706;2023-08-12T14:18:41;2.70;;;2.50;;
5622;SDS011;2833;50.432;10.706;2023-08-12T14:21:07;3.40;;;2.57;;
5622;SDS011;2833;50.432;10.706;2023-08-12T14:23:32;3.40;;;2.60;;
5622;SDS011;2833;50.432;10.706;2023-08-12T14:25:57;5.60;;;2.53;;
5622;SDS011;2833;50.432;10.706;2023-08-12T14:28:22;5.47;;;2.50;;
5622;SDS011;2833;50.432;10.706;2023-08-12T14:30:47;2.93;;;2.50;;
5622;SDS011;2833;50.432;10.706;2023-08-12T14:33:13;7.40;;;6.70;;
5622;SDS011;2833;50.432;10.706;2023-08-12T14:35:38;5.60;;;4.70;;
5622;SDS011;2833;50.432;10.706;2023-08-12T14:38:03;6.90;;;5.60;;
5622;SDS011;2833;50.432;10.706;2023-08-12T14:40:28;3.47;;;2.97;;
5622;SDS011;2833;50.432;10.706;2023-08-12T14:42:54;5.33;;;2.63;;
5622;SDS011;2833;50.432;10.706;2023-08-12T14:45:19;4.30;;;2.47;;
5622;SDS011;2833;50.432;10.706;2023-08-12T14:47:45;2.80;;;2.47;;
5622;SDS011;2833;50.432;10.706;2023-08-12T14:50:10;2.00;;;1.90;;
5622;SDS011;2833;50.432;10.706;2023-08-12T14:52:35;2.57;;;2.37;;
5622;SDS011;2833;50.432;10.706;2023-08-12T14:55:01;3.47;;;2.10;;
5622;SDS011;2833;50.432;10.706;2023-08-12T14:57:26;3.27;;;2.37;;
5622;SDS011;2833;50.432;10.706;2023-08-12T14:59:52;2.20;;;2.00;;
5622;SDS011;2833;50.432;10.706;2023-08-12T15:02:20;2.67;;;2.40;;
5622;SDS011;2833;50.432;10.706;2023-08-12T15:04:45;2.60;;;2.37;;
5622;SDS011;2833;50.432;10.706;2023-08-12T15:07:12;4.40;;;2.10;;
5622;SDS011;2833;50.432;10.706;2023-08-12T15:09:37;3.00;;;2.53;;
5622;SDS011;2833;50.432;10.706;2023-08-12T15:12:02;2.40;;;2.20;;
5622;SDS011;2833;50.432;10.706;2023-08-12T15:14:27;4.33;;;2.00;;
5622;SDS011;2833;50.432;10.706;2023-08-12T15:16:53;4.73;;;2.00;;
5622;SDS011;2833;50.432;10.706;2023-08-12T15:19:18;2.60;;;2.40;;